Flight Track Log - Related Links

Times and Time Zones

All times are in EDT time to prevent confusion due to time zone crossing. See the UAL4543 flight status page for this flight to view local times or setup timezone preferences in your user account.

Time Position Orientation Groundspeed Altitude Reporting Facility
EDT Latitude Longitude Course Direction KTS MPH feet Rate Location/Type
Mon 10:30:00 PM 41.0084 -74.5441 316° Northwest  Level FlightAware Approximate
Mon 10:31:00 PM 41.0866 -74.6446 316° Northwest  Level FlightAware Approximate
Mon 10:32:00 PM 41.1451 -74.7462 298° West  Level FlightAware Approximate
Mon 10:33:00 PM 41.2000 -74.8659 270° West  Level FlightAware Approximate
Mon 10:34:00 PM 41.2524 -74.9894 298° West  Level FlightAware Approximate
Mon 10:35:00 PM 41.3072 -75.1144 304° West  Level FlightAware Approximate
Mon 10:36:00 PM 41.3649 -75.2372 298° West  Level FlightAware Approximate
Mon 10:37:00 PM 41.4188 -75.3631 301° West  Level FlightAware Approximate
Mon 10:38:00 PM 41.4723 -75.4890 288° West  Level FlightAware Approximate
Mon 10:39:00 PM 41.5134 -75.6234 294° West  Level FlightAware Approximate
Mon 10:40:00 PM 41.5413 -75.7612 291° West  Level FlightAware Approximate
Mon 10:41:00 PM 41.5876 -75.8919 304° West  Level FlightAware Approximate
Mon 10:42:00 PM 41.6207 -76.0288 294° West  Level FlightAware Approximate
Mon 10:43:00 PM 41.6651 -76.1618 294° West  Level FlightAware Approximate
Mon 10:44:00 PM 41.6973 -76.3003 283° West  Level FlightAware Approximate
Mon 10:45:00 PM 41.7393 -76.4345 294° West  Level FlightAware Approximate
Mon 10:46:00 PM 41.7775 -76.5707 285° West  Level FlightAware Approximate
Mon 10:47:00 PM 41.8079 -76.7107 291° West  Level FlightAware Approximate
Mon 10:48:00 PM 41.8469 -76.8471 291° West  Level FlightAware Approximate
Mon 10:49:00 PM 41.8877 -76.9826 290° West  Level FlightAware Approximate
Mon 10:50:00 PM 41.9253 -77.1198 290° West  Level FlightAware Approximate
Mon 10:51:00 PM 41.9627 -77.2572 290° West  Level FlightAware Approximate
Mon 10:52:00 PM 41.9999 -77.3948 290° West  Level FlightAware Approximate
Mon 10:53:00 PM 42.0369 -77.5326 290° West  Level FlightAware Approximate
Mon 10:54:00 PM 42.0737 -77.6706 290° West  Level FlightAware Approximate
Mon 10:55:00 PM 42.1103 -77.8087 290° West  Level FlightAware Approximate
Mon 10:56:00 PM 42.1468 -77.9470 290° West  Level FlightAware Approximate
Mon 10:57:00 PM 42.1831 -78.0854 290° West  Level FlightAware Approximate
Mon 10:58:00 PM 42.2193 -78.2240 289° West  Level FlightAware Approximate
Mon 10:59:00 PM 42.2553 -78.3628 289° West  Level FlightAware Approximate
Mon 11:00:00 PM 42.2911 -78.5017 289° West  Level FlightAware Approximate
Mon 11:01:00 PM 42.3267 -78.6407 289° West  Level FlightAware Approximate
Mon 11:02:00 PM 42.3620 -78.7801 289° West  Level FlightAware Approximate
Mon 11:03:00 PM 42.3970 -78.9195 289° West  Level FlightAware Approximate
Mon 11:04:00 PM 42.4319 -79.0592 289° West  Level FlightAware Approximate
Mon 11:05:00 PM 42.4666 -79.1990 289° West  Level FlightAware Approximate
Mon 11:06:00 PM 42.4873 -79.3427 274° West  Level FlightAware Approximate
Mon 11:07:00 PM 42.4948 -79.4900 274° West  Level FlightAware Approximate
Mon 11:08:00 PM 42.5021 -79.6373 274° West  Level FlightAware Approximate
Mon 11:09:00 PM 42.5093 -79.7846 274° West  Level FlightAware Approximate
Mon 11:10:00 PM 42.5162 -79.9320 274° West  Level FlightAware Approximate
Mon 11:11:00 PM 42.5230 -80.0794 274° West  Level FlightAware Approximate
Mon 11:12:00 PM 42.5295 -80.2268 274° West  Level FlightAware Approximate
Mon 11:13:00 PM 42.5359 -80.3742 273° West  Level FlightAware Approximate
Mon 11:14:00 PM 42.5421 -80.5217 273° West  Level FlightAware Approximate
Mon 11:15:00 PM 42.5481 -80.6692 273° West  Level FlightAware Approximate
Mon 11:16:00 PM 42.5527 -80.8168 272° West  Level FlightAware Approximate
Mon 11:17:00 PM 42.5564 -80.9645 272° West  Level FlightAware Approximate
Mon 11:18:00 PM 42.5599 -81.1122 272° West  Level FlightAware Approximate
Mon 11:19:00 PM 42.5633 -81.2599 272° West  Level FlightAware Approximate
Mon 11:20:00 PM 42.5665 -81.4076 272° West  Level FlightAware Approximate
Mon 11:21:00 PM 42.5901 -81.5518 283° West  Level FlightAware Approximate
Mon 11:22:00 PM 42.6149 -81.6957 283° West  Level FlightAware Approximate
Mon 11:23:00 PM 42.6395 -81.8398 283° West  Level FlightAware Approximate
Mon 11:24:00 PM 42.6640 -81.9840 283° West  Level FlightAware Approximate
Mon 11:25:00 PM 42.6885 -82.1283 283° West  Level FlightAware Approximate
Mon 11:26:00 PM 42.7128 -82.2727 283° West  Level FlightAware Approximate
Mon 11:27:00 PM 42.7369 -82.4171 283° West  Level FlightAware Approximate
Mon 11:28:00 PM 42.7609 -82.5617 283° West  Level FlightAware Approximate
Mon 11:29:00 PM 42.7847 -82.7064 283° West  Level FlightAware Approximate
Mon 11:30:00 PM 42.8097 -82.8508 285° West  Level FlightAware Approximate
Mon 11:31:00 PM 42.8372 -82.9944 285° West  Level FlightAware Approximate
Mon 11:32:00 PM 42.8644 -83.1381 285° West  Level FlightAware Approximate
Mon 11:33:00 PM 42.8915 -83.2820 284° West  Level FlightAware Approximate
Mon 11:34:00 PM 42.9182 -83.4260 282° West  Level FlightAware Approximate
Mon 11:35:00 PM 42.9412 -83.5713 282° West  Level FlightAware Approximate
Mon 11:36:00 PM 42.9641 -83.7167 282° West  Level FlightAware Approximate
Mon 11:37:00 PM 42.9794 -83.8640 278° West  Level FlightAware Approximate
Mon 11:38:00 PM 42.9935 -84.0115 278° West  Level FlightAware Approximate
Mon 11:39:00 PM 43.0075 -84.1591 277° West  Level FlightAware Approximate
Mon 11:40:00 PM 43.0213 -84.3067 277° West  Level FlightAware Approximate
Mon 11:41:00 PM 43.0349 -84.4545 277° West  Level FlightAware Approximate
Mon 11:42:00 PM 43.0483 -84.6023 277° West  Level FlightAware Approximate
Mon 11:43:00 PM 43.0615 -84.7501 277° West  Level FlightAware Approximate
Mon 11:44:00 PM 43.0745 -84.8981 277° West  Level FlightAware Approximate
Mon 11:45:00 PM 43.0872 -85.0461 277° West  Level FlightAware Approximate
Mon 11:46:00 PM 43.0996 -85.1942 277° West  Level FlightAware Approximate
Mon 11:47:00 PM 43.1118 -85.3423 276° West  Level FlightAware Approximate
Mon 11:48:00 PM 43.1238 -85.4905 276° West  Level FlightAware Approximate
Mon 11:49:00 PM 43.1356 -85.6388 276° West  Level FlightAware Approximate
Mon 11:50:00 PM 43.1471 -85.7871 276° West  Level FlightAware Approximate
Mon 11:51:00 PM 43.1586 -85.9355 276° West  Level FlightAware Approximate
Mon 11:52:00 PM 43.1698 -86.0839 276° West  Level FlightAware Approximate
Mon 11:53:00 PM 43.1808 -86.2324 276° West  Level FlightAware Approximate
Mon 11:54:00 PM 43.1810 -86.3814 268° West  Level FlightAware Approximate
Mon 11:55:00 PM 43.1779 -86.5306 268° West  Level FlightAware Approximate
Mon 11:56:00 PM 43.1745 -86.6798 268° West  Level FlightAware Approximate
Mon 11:57:00 PM 43.1710 -86.8290 268° West  Level FlightAware Approximate
Mon 11:58:00 PM 43.1672 -86.9781 268° West  Level FlightAware Approximate
Mon 11:59:00 PM 43.1603 -87.1271 266° West  Level FlightAware Approximate
Tue 12:00:00 AM 43.1526 -87.2759 266° West  Level FlightAware Approximate
Tue 12:01:00 AM 43.1447 -87.4247 266° West  Level FlightAware Approximate
Tue 12:02:00 AM 43.1366 -87.5734 266° West  Level FlightAware Approximate
Tue 12:03:00 AM 43.1313 -87.7224 268° West  Level FlightAware Approximate
Tue 12:04:00 AM 43.1277 -87.8714 268° West  Level FlightAware Approximate
Tue 12:05:00 AM 43.1239 -88.0205 268° West  Level FlightAware Approximate
Tue 12:06:00 AM 43.1199 -88.1695 268° West  Level FlightAware Approximate
Tue 12:07:00 AM 43.1067 -88.3158 247° West  Level FlightAware Approximate
Tue 12:08:00 AM 43.0645 -88.4531 247° West  Level FlightAware Approximate
Tue 12:09:00 AM 43.0242 -88.5915 249° West  Level FlightAware Approximate
Tue 12:10:00 AM 42.9848 -88.7302 249° West  Level FlightAware Approximate
Tue 12:11:00 AM 42.9453 -88.8688 249° West  Level FlightAware Approximate
Tue 12:12:00 AM 42.9056 -89.0073 249° West  Level FlightAware Approximate
Tue 12:13:00 AM 42.8658 -89.1455 249° West  Level FlightAware Approximate
Tue 12:14:00 AM 42.8253 -89.2833 248° West  Level FlightAware Approximate
Tue 12:15:00 AM 42.7845 -89.4208 248° West  Level FlightAware Approximate
Tue 12:16:00 AM 42.7434 -89.5582 248° West  Level FlightAware Approximate
Tue 12:17:00 AM 42.7022 -89.6953 248° West  Level FlightAware Approximate
Tue 12:18:00 AM 42.6609 -89.8322 248° West  Level FlightAware Approximate
Tue 12:19:00 AM 42.6193 -89.9690 248° West  Level FlightAware Approximate
Tue 12:20:00 AM 42.5776 -90.1056 248° West  Level FlightAware Approximate
Tue 12:21:00 AM 42.5358 -90.2420 247° West  Level FlightAware Approximate
Tue 12:22:00 AM 42.4931 -90.3778 247° West  Level FlightAware Approximate
Tue 12:23:00 AM 42.4502 -90.5135 247° West  Level FlightAware Approximate
Tue 12:24:00 AM 42.4122 -90.6515 251° West  Level FlightAware Approximate
Tue 12:25:00 AM 42.3759 -90.7905 250° West  Level FlightAware Approximate
Tue 12:26:00 AM 42.3390 -90.9290 250° West  Level FlightAware Approximate
Tue 12:27:00 AM 42.2955 -91.0639 246° West  Level FlightAware Approximate
Tue 12:28:00 AM 42.2507 -91.1980 246° West  Level FlightAware Approximate
Tue 12:29:00 AM 42.2212 -91.3390 247° West  Level FlightAware Approximate
Tue 12:30:00 AM 42.1789 -91.4744 247° West  Level FlightAware Approximate
Tue 12:31:00 AM 42.1390 -91.6109 251° West  Level FlightAware Approximate
Tue 12:32:00 AM 42.1026 -91.7492 249° West  Level FlightAware Approximate
Tue 12:33:00 AM 42.0631 -91.8858 248° West  Level FlightAware Approximate
Tue 12:34:00 AM 42.0230 -92.0221 248° West  Level FlightAware Approximate
Tue 12:35:00 AM 41.9825 -92.1580 248° West  Level FlightAware Approximate
Tue 12:36:00 AM 41.9413 -92.2935 248° West  Level FlightAware Approximate
Tue 12:37:00 AM 41.9000 -92.4289 248° West  Level FlightAware Approximate
Tue 12:38:00 AM 41.8586 -92.5640 248° West  Level FlightAware Approximate
Tue 12:39:00 AM 41.8170 -92.6990 248° West  Level FlightAware Approximate
Tue 12:40:00 AM 41.7776 -92.8338 246° West  Level FlightAware Approximate
Tue 12:41:00 AM 41.7342 -92.9675 247° West  Level FlightAware Approximate
Tue 12:42:00 AM 41.6922 -93.1021 247° West  Level FlightAware Approximate
Tue 12:43:00 AM 41.6503 -93.2366 248° West  Level FlightAware Approximate
Tue 12:44:00 AM 41.6089 -93.3712 248° West  Level FlightAware Approximate
Tue 12:45:00 AM 41.5659 -93.5048 257° West  Level FlightAware Approximate
Tue 12:46:00 AM 41.5354 -93.6438 246° West  Level FlightAware Approximate
Tue 12:47:00 AM 41.5333 -93.6500 246° West  Level FlightAware Approximate
Tue 12:48:00 AM 41.5340 -93.6631 246° West  Level Estimated
Tue 12:49:00 AM 41.5340 -93.6631 246° West  Level Estimated
Tue 12:50:00 AM 41.5340 -93.6631 246° West  Level Estimated
Tue 12:51:00 AM 41.5340 -93.6631 246° West  Level Estimated
Tue 12:52:00 AM 41.5340 -93.6631 246° West  Level Estimated

Login

Don't have an account? Register now (free) for customized features, flight alerts, and more!